sensor_id;sensor_type;location;lat;lon;timestamp;P1;durP1;ratioP1;P2;durP2;ratioP2
18013;SDS011;9132;47.946;10.394;2022-12-05T00:01:26;12.03;;;7.70;;
18013;SDS011;9132;47.946;10.394;2022-12-05T00:03:54;14.07;;;8.73;;
18013;SDS011;9132;47.946;10.394;2022-12-05T00:06:21;11.17;;;8.03;;
18013;SDS011;9132;47.946;10.394;2022-12-05T00:08:48;12.30;;;8.53;;
18013;SDS011;9132;47.946;10.394;2022-12-05T00:11:16;12.63;;;8.43;;
18013;SDS011;9132;47.946;10.394;2022-12-05T00:13:42;14.03;;;9.10;;
18013;SDS011;9132;47.946;10.394;2022-12-05T00:16:09;12.03;;;8.13;;
18013;SDS011;9132;47.946;10.394;2022-12-05T00:18:37;13.10;;;8.80;;
18013;SDS011;9132;47.946;10.394;2022-12-05T00:21:04;12.63;;;8.77;;
18013;SDS011;9132;47.946;10.394;2022-12-05T00:23:31;13.30;;;8.87;;
18013;SDS011;9132;47.946;10.394;2022-12-05T00:26:00;14.83;;;9.30;;
18013;SDS011;9132;47.946;10.394;2022-12-05T00:28:27;12.83;;;8.40;;
18013;SDS011;9132;47.946;10.394;2022-12-05T00:30:53;13.40;;;8.47;;
18013;SDS011;9132;47.946;10.394;2022-12-05T00:33:19;11.70;;;8.03;;
18013;SDS011;9132;47.946;10.394;2022-12-05T00:35:47;16.17;;;8.73;;
18013;SDS011;9132;47.946;10.394;2022-12-05T00:38:13;15.63;;;10.00;;
18013;SDS011;9132;47.946;10.394;2022-12-05T00:40:40;14.40;;;9.10;;
18013;SDS011;9132;47.946;10.394;2022-12-05T00:43:06;14.90;;;9.90;;
18013;SDS011;9132;47.946;10.394;2022-12-05T00:45:33;16.80;;;9.77;;
18013;SDS011;9132;47.946;10.394;2022-12-05T00:47:59;16.20;;;9.73;;
18013;SDS011;9132;47.946;10.394;2022-12-05T00:50:25;16.23;;;10.10;;
18013;SDS011;9132;47.946;10.394;2022-12-05T00:52:53;15.13;;;9.87;;
18013;SDS011;9132;47.946;10.394;2022-12-05T00:55:20;16.13;;;10.30;;
18013;SDS011;9132;47.946;10.394;2022-12-05T00:57:46;13.93;;;9.57;;
18013;SDS011;9132;47.946;10.394;2022-12-05T01:00:13;15.13;;;9.23;;
18013;SDS011;9132;47.946;10.394;2022-12-05T01:02:39;18.57;;;10.80;;
18013;SDS011;9132;47.946;10.394;2022-12-05T01:05:06;16.33;;;10.40;;
18013;SDS011;9132;47.946;10.394;2022-12-05T01:07:32;15.30;;;10.17;;
18013;SDS011;9132;47.946;10.394;2022-12-05T01:10:00;20.13;;;11.17;;
18013;SDS011;9132;47.946;10.394;2022-12-05T01:12:27;17.53;;;10.87;;
18013;SDS011;9132;47.946;10.394;2022-12-05T01:14:53;19.87;;;11.07;;
18013;SDS011;9132;47.946;10.394;2022-12-05T01:17:20;19.33;;;11.20;;
18013;SDS011;9132;47.946;10.394;2022-12-05T01:19:46;19.77;;;10.60;;
18013;SDS011;9132;47.946;10.394;2022-12-05T01:22:13;19.40;;;10.83;;
18013;SDS011;9132;47.946;10.394;2022-12-05T01:24:39;22.47;;;11.67;;
18013;SDS011;9132;47.946;10.394;2022-12-05T01:27:07;19.80;;;11.20;;
18013;SDS011;9132;47.946;10.394;2022-12-05T01:29:33;22.00;;;11.70;;
18013;SDS011;9132;47.946;10.394;2022-12-05T01:32:00;23.37;;;12.43;;
18013;SDS011;9132;47.946;10.394;2022-12-05T01:34:26;21.57;;;12.63;;
18013;SDS011;9132;47.946;10.394;2022-12-05T01:36:53;18.80;;;11.43;;
18013;SDS011;9132;47.946;10.394;2022-12-05T01:39:19;22.57;;;12.03;;
18013;SDS011;9132;47.946;10.394;2022-12-05T01:41:47;22.10;;;12.10;;
18013;SDS011;9132;47.946;10.394;2022-12-05T01:47:00;27.53;;;13.57;;
18013;SDS011;9132;47.946;10.394;2022-12-05T01:49:28;22.27;;;12.80;;
18013;SDS011;9132;47.946;10.394;2022-12-05T01:51:57;23.07;;;12.37;;
18013;SDS011;9132;47.946;10.394;2022-12-05T01:54:23;23.33;;;13.23;;
18013;SDS011;9132;47.946;10.394;2022-12-05T01:56:51;23.90;;;13.67;;
18013;SDS011;9132;47.946;10.394;2022-12-05T01:59:18;23.37;;;12.80;;
18013;SDS011;9132;47.946;10.394;2022-12-05T02:01:45;22.30;;;12.57;;
18013;SDS011;9132;47.946;10.394;2022-12-05T02:04:13;24.30;;;13.47;;
18013;SDS011;9132;47.946;10.394;2022-12-05T02:06:40;23.80;;;13.37;;
18013;SDS011;9132;47.946;10.394;2022-12-05T02:09:06;23.63;;;13.37;;
18013;SDS011;9132;47.946;10.394;2022-12-05T02:11:32;25.00;;;14.30;;
18013;SDS011;9132;47.946;10.394;2022-12-05T02:14:12;22.53;;;13.70;;
18013;SDS011;9132;47.946;10.394;2022-12-05T02:16:45;22.07;;;13.43;;
18013;SDS011;9132;47.946;10.394;2022-12-05T02:22:02;26.90;;;12.93;;
18013;SDS011;9132;47.946;10.394;2022-12-05T02:24:38;30.87;;;13.17;;
18013;SDS011;9132;47.946;10.394;2022-12-05T02:27:26;28.20;;;13.43;;
18013;SDS011;9132;47.946;10.394;2022-12-05T02:30:02;30.90;;;13.03;;
18013;SDS011;9132;47.946;10.394;2022-12-05T02:35:12;24.77;;;12.03;;
18013;SDS011;9132;47.946;10.394;2022-12-05T02:37:43;20.07;;;11.33;;
18013;SDS011;9132;47.946;10.394;2022-12-05T02:40:14;30.33;;;11.83;;
18013;SDS011;9132;47.946;10.394;2022-12-05T02:42:46;19.50;;;11.57;;
18013;SDS011;9132;47.946;10.394;2022-12-05T02:45:16;22.03;;;11.63;;
18013;SDS011;9132;47.946;10.394;2022-12-05T02:47:46;18.70;;;11.60;;
18013;SDS011;9132;47.946;10.394;2022-12-05T02:50:14;22.00;;;11.07;;
18013;SDS011;9132;47.946;10.394;2022-12-05T02:52:41;18.70;;;10.37;;
18013;SDS011;9132;47.946;10.394;2022-12-05T02:55:10;17.10;;;10.30;;
18013;SDS011;9132;47.946;10.394;2022-12-05T02:57:38;16.07;;;10.03;;
18013;SDS011;9132;47.946;10.394;2022-12-05T03:00:06;13.27;;;8.87;;
18013;SDS011;9132;47.946;10.394;2022-12-05T03:02:34;14.03;;;9.23;;
18013;SDS011;9132;47.946;10.394;2022-12-05T03:05:03;13.67;;;9.17;;
18013;SDS011;9132;47.946;10.394;2022-12-05T03:07:34;14.33;;;9.03;;
18013;SDS011;9132;47.946;10.394;2022-12-05T03:10:01;15.93;;;9.93;;
18013;SDS011;9132;47.946;10.394;2022-12-05T03:12:29;14.97;;;9.43;;
18013;SDS011;9132;47.946;10.394;2022-12-05T03:14:59;15.33;;;10.47;;
18013;SDS011;9132;47.946;10.394;2022-12-05T03:17:27;14.37;;;9.47;;
18013;SDS011;9132;47.946;10.394;2022-12-05T03:19:59;12.97;;;9.33;;
18013;SDS011;9132;47.946;10.394;2022-12-05T03:22:29;15.70;;;9.77;;
18013;SDS011;9132;47.946;10.394;2022-12-05T03:24:57;15.33;;;10.23;;
18013;SDS011;9132;47.946;10.394;2022-12-05T03:27:24;14.10;;;9.13;;
18013;SDS011;9132;47.946;10.394;2022-12-05T03:29:53;14.83;;;9.23;;
18013;SDS011;9132;47.946;10.394;2022-12-05T03:32:21;12.63;;;8.47;;
18013;SDS011;9132;47.946;10.394;2022-12-05T03:34:52;14.40;;;9.53;;
18013;SDS011;9132;47.946;10.394;2022-12-05T03:37:26;14.50;;;9.73;;
18013;SDS011;9132;47.946;10.394;2022-12-05T03:39:57;14.27;;;9.07;;
18013;SDS011;9132;47.946;10.394;2022-12-05T03:42:27;14.90;;;9.37;;
18013;SDS011;9132;47.946;10.394;2022-12-05T03:44:56;14.63;;;9.47;;
18013;SDS011;9132;47.946;10.394;2022-12-05T03:47:25;14.60;;;9.70;;
18013;SDS011;9132;47.946;10.394;2022-12-05T03:49:56;14.23;;;9.97;;
18013;SDS011;9132;47.946;10.394;2022-12-05T03:52:27;14.13;;;9.00;;
18013;SDS011;9132;47.946;10.394;2022-12-05T03:54:55;15.97;;;10.43;;
18013;SDS011;9132;47.946;10.394;2022-12-05T03:57:23;13.57;;;9.37;;
18013;SDS011;9132;47.946;10.394;2022-12-05T03:59:53;15.97;;;9.20;;
18013;SDS011;9132;47.946;10.394;2022-12-05T04:02:22;12.77;;;8.77;;
18013;SDS011;9132;47.946;10.394;2022-12-05T04:04:52;13.60;;;8.73;;
18013;SDS011;9132;47.946;10.394;2022-12-05T04:07:20;12.07;;;8.30;;
18013;SDS011;9132;47.946;10.394;2022-12-05T04:09:49;13.23;;;8.90;;
18013;SDS011;9132;47.946;10.394;2022-12-05T04:12:18;13.17;;;9.23;;
18013;SDS011;9132;47.946;10.394;2022-12-05T04:14:47;12.27;;;7.77;;
18013;SDS011;9132;47.946;10.394;2022-12-05T04:17:15;12.03;;;8.43;;
18013;SDS011;9132;47.946;10.394;2022-12-05T04:19:43;12.27;;;8.50;;
18013;SDS011;9132;47.946;10.394;2022-12-05T04:22:29;12.23;;;8.30;;
18013;SDS011;9132;47.946;10.394;2022-12-05T04:24:57;12.00;;;8.17;;
18013;SDS011;9132;47.946;10.394;2022-12-05T04:27:45;11.53;;;7.53;;
18013;SDS011;9132;47.946;10.394;2022-12-05T04:30:15;11.13;;;7.80;;
18013;SDS011;9132;47.946;10.394;2022-12-05T04:32:44;10.60;;;8.07;;
18013;SDS011;9132;47.946;10.394;2022-12-05T04:35:13;11.20;;;8.10;;
18013;SDS011;9132;47.946;10.394;2022-12-05T04:37:42;11.73;;;7.93;;
18013;SDS011;9132;47.946;10.394;2022-12-05T04:40:12;10.77;;;7.63;;
18013;SDS011;9132;47.946;10.394;2022-12-05T04:42:40;10.93;;;7.17;;
18013;SDS011;9132;47.946;10.394;2022-12-05T04:45:08;9.13;;;7.20;;
18013;SDS011;9132;47.946;10.394;2022-12-05T04:47:36;10.87;;;7.43;;
18013;SDS011;9132;47.946;10.394;2022-12-05T04:50:05;12.13;;;8.10;;
18013;SDS011;9132;47.946;10.394;2022-12-05T04:52:32;8.67;;;7.03;;
18013;SDS011;9132;47.946;10.394;2022-12-05T04:55:01;14.60;;;7.43;;
18013;SDS011;9132;47.946;10.394;2022-12-05T04:57:32;11.70;;;7.43;;
18013;SDS011;9132;47.946;10.394;2022-12-05T04:59:59;11.60;;;7.43;;
18013;SDS011;9132;47.946;10.394;2022-12-05T05:02:26;9.80;;;6.93;;
18013;SDS011;9132;47.946;10.394;2022-12-05T05:04:55;10.27;;;7.27;;
18013;SDS011;9132;47.946;10.394;2022-12-05T05:07:22;11.97;;;8.57;;
18013;SDS011;9132;47.946;10.394;2022-12-05T05:09:49;12.87;;;9.70;;
18013;SDS011;9132;47.946;10.394;2022-12-05T05:12:15;10.43;;;8.33;;
18013;SDS011;9132;47.946;10.394;2022-12-05T05:14:43;9.90;;;7.60;;
18013;SDS011;9132;47.946;10.394;2022-12-05T05:17:09;10.50;;;8.50;;
18013;SDS011;9132;47.946;10.394;2022-12-05T05:19:36;13.90;;;11.10;;
18013;SDS011;9132;47.946;10.394;2022-12-05T05:22:02;12.20;;;9.23;;
18013;SDS011;9132;47.946;10.394;2022-12-05T05:24:29;9.93;;;7.53;;
18013;SDS011;9132;47.946;10.394;2022-12-05T05:26:55;10.87;;;8.33;;
18013;SDS011;9132;47.946;10.394;2022-12-05T05:29:21;9.37;;;7.40;;
18013;SDS011;9132;47.946;10.394;2022-12-05T05:31:49;9.07;;;6.87;;
18013;SDS011;9132;47.946;10.394;2022-12-05T05:34:15;9.30;;;7.00;;
18013;SDS011;9132;47.946;10.394;2022-12-05T05:36:42;9.17;;;7.13;;
18013;SDS011;9132;47.946;10.394;2022-12-05T05:39:10;9.97;;;7.27;;
18013;SDS011;9132;47.946;10.394;2022-12-05T05:41:37;8.83;;;6.50;;
18013;SDS011;9132;47.946;10.394;2022-12-05T05:44:03;9.43;;;6.90;;
18013;SDS011;9132;47.946;10.394;2022-12-05T05:46:30;9.60;;;7.17;;
18013;SDS011;9132;47.946;10.394;2022-12-05T05:48:58;9.97;;;6.50;;
18013;SDS011;9132;47.946;10.394;2022-12-05T05:51:24;9.97;;;7.47;;
18013;SDS011;9132;47.946;10.394;2022-12-05T05:53:53;8.40;;;6.20;;
18013;SDS011;9132;47.946;10.394;2022-12-05T05:56:19;10.10;;;6.23;;
18013;SDS011;9132;47.946;10.394;2022-12-05T05:58:45;9.10;;;6.07;;
18013;SDS011;9132;47.946;10.394;2022-12-05T06:01:13;9.80;;;6.77;;
18013;SDS011;9132;47.946;10.394;2022-12-05T06:03:40;10.13;;;6.87;;
18013;SDS011;9132;47.946;10.394;2022-12-05T06:06:08;8.50;;;6.70;;
18013;SDS011;9132;47.946;10.394;2022-12-05T06:08:35;8.97;;;6.10;;
18013;SDS011;9132;47.946;10.394;2022-12-05T06:11:03;8.70;;;6.50;;
18013;SDS011;9132;47.946;10.394;2022-12-05T06:13:29;8.23;;;6.13;;
18013;SDS011;9132;47.946;10.394;2022-12-05T06:15:56;6.30;;;5.10;;
18013;SDS011;9132;47.946;10.394;2022-12-05T06:18:22;6.80;;;5.33;;
18013;SDS011;9132;47.946;10.394;2022-12-05T06:20:51;7.73;;;5.70;;
18013;SDS011;9132;47.946;10.394;2022-12-05T06:23:19;6.07;;;4.77;;
18013;SDS011;9132;47.946;10.394;2022-12-05T06:25:46;7.10;;;4.47;;
18013;SDS011;9132;47.946;10.394;2022-12-05T06:28:13;7.00;;;4.53;;
18013;SDS011;9132;47.946;10.394;2022-12-05T06:30:39;7.07;;;4.80;;
18013;SDS011;9132;47.946;10.394;2022-12-05T06:33:05;5.17;;;4.03;;
18013;SDS011;9132;47.946;10.394;2022-12-05T06:35:32;6.38;;;4.63;;
18013;SDS011;9132;47.946;10.394;2022-12-05T06:37:58;5.57;;;4.00;;
18013;SDS011;9132;47.946;10.394;2022-12-05T06:40:26;6.90;;;4.50;;
18013;SDS011;9132;47.946;10.394;2022-12-05T06:42:52;6.43;;;3.80;;
18013;SDS011;9132;47.946;10.394;2022-12-05T06:45:18;4.07;;;3.47;;
18013;SDS011;9132;47.946;10.394;2022-12-05T06:47:45;4.73;;;3.47;;
18013;SDS011;9132;47.946;10.394;2022-12-05T06:50:11;3.97;;;3.07;;
18013;SDS011;9132;47.946;10.394;2022-12-05T06:52:37;4.17;;;3.40;;
18013;SDS011;9132;47.946;10.394;2022-12-05T06:55:04;5.20;;;3.30;;
18013;SDS011;9132;47.946;10.394;2022-12-05T06:57:32;5.03;;;3.73;;
18013;SDS011;9132;47.946;10.394;2022-12-05T06:59:58;3.80;;;3.40;;
18013;SDS011;9132;47.946;10.394;2022-12-05T07:02:38;4.03;;;3.17;;
18013;SDS011;9132;47.946;10.394;2022-12-05T07:05:06;3.60;;;3.13;;
18013;SDS011;9132;47.946;10.394;2022-12-05T07:07:32;3.90;;;3.13;;
18013;SDS011;9132;47.946;10.394;2022-12-05T07:09:58;4.50;;;3.10;;
18013;SDS011;9132;47.946;10.394;2022-12-05T07:12:25;4.20;;;2.70;;
18013;SDS011;9132;47.946;10.394;2022-12-05T07:14:52;3.10;;;2.80;;
18013;SDS011;9132;47.946;10.394;2022-12-05T07:17:19;2.87;;;2.43;;
18013;SDS011;9132;47.946;10.394;2022-12-05T07:19:46;3.67;;;3.00;;
18013;SDS011;9132;47.946;10.394;2022-12-05T07:22:13;4.33;;;3.20;;
18013;SDS011;9132;47.946;10.394;2022-12-05T07:24:39;4.80;;;3.10;;
18013;SDS011;9132;47.946;10.394;2022-12-05T07:27:05;3.77;;;3.03;;
18013;SDS011;9132;47.946;10.394;2022-12-05T07:29:32;3.80;;;2.90;;
18013;SDS011;9132;47.946;10.394;2022-12-05T07:31:59;3.20;;;2.80;;
18013;SDS011;9132;47.946;10.394;2022-12-05T07:34:26;3.57;;;2.90;;
18013;SDS011;9132;47.946;10.394;2022-12-05T07:36:52;3.60;;;2.77;;
18013;SDS011;9132;47.946;10.394;2022-12-05T07:39:19;4.13;;;2.83;;
18013;SDS011;9132;47.946;10.394;2022-12-05T07:41:45;3.03;;;2.60;;
18013;SDS011;9132;47.946;10.394;2022-12-05T07:44:11;2.33;;;2.13;;
18013;SDS011;9132;47.946;10.394;2022-12-05T07:46:38;3.43;;;2.77;;
18013;SDS011;9132;47.946;10.394;2022-12-05T07:49:06;2.70;;;2.20;;
18013;SDS011;9132;47.946;10.394;2022-12-05T07:51:33;3.23;;;2.30;;
18013;SDS011;9132;47.946;10.394;2022-12-05T07:53:59;3.43;;;2.73;;
18013;SDS011;9132;47.946;10.394;2022-12-05T07:56:26;3.30;;;2.20;;
18013;SDS011;9132;47.946;10.394;2022-12-05T07:58:52;2.47;;;2.27;;
18013;SDS011;9132;47.946;10.394;2022-12-05T08:01:20;2.90;;;2.00;;
18013;SDS011;9132;47.946;10.394;2022-12-05T08:03:46;2.87;;;2.13;;
18013;SDS011;9132;47.946;10.394;2022-12-05T08:06:15;2.70;;;2.27;;
18013;SDS011;9132;47.946;10.394;2022-12-05T08:08:42;3.33;;;2.20;;
18013;SDS011;9132;47.946;10.394;2022-12-05T08:11:09;2.33;;;2.00;;
18013;SDS011;9132;47.946;10.394;2022-12-05T08:13:35;3.00;;;2.30;;
18013;SDS011;9132;47.946;10.394;2022-12-05T08:16:02;2.67;;;2.20;;
18013;SDS011;9132;47.946;10.394;2022-12-05T08:18:29;2.83;;;2.30;;
18013;SDS011;9132;47.946;10.394;2022-12-05T08:20:59;3.03;;;2.40;;
18013;SDS011;9132;47.946;10.394;2022-12-05T08:23:28;2.93;;;2.47;;
18013;SDS011;9132;47.946;10.394;2022-12-05T08:25:55;3.60;;;3.27;;
18013;SDS011;9132;47.946;10.394;2022-12-05T08:28:21;2.60;;;2.33;;
18013;SDS011;9132;47.946;10.394;2022-12-05T08:30:48;3.20;;;2.57;;
18013;SDS011;9132;47.946;10.394;2022-12-05T08:33:14;4.30;;;3.57;;
18013;SDS011;9132;47.946;10.394;2022-12-05T08:35:40;2.97;;;2.40;;
18013;SDS011;9132;47.946;10.394;2022-12-05T08:38:07;3.43;;;2.63;;
18013;SDS011;9132;47.946;10.394;2022-12-05T08:40:34;3.77;;;3.37;;
18013;SDS011;9132;47.946;10.394;2022-12-05T08:43:01;3.43;;;2.90;;
18013;SDS011;9132;47.946;10.394;2022-12-05T08:45:27;3.20;;;2.83;;
18013;SDS011;9132;47.946;10.394;2022-12-05T08:47:53;4.73;;;3.30;;
18013;SDS011;9132;47.946;10.394;2022-12-05T08:50:19;4.03;;;3.03;;
18013;SDS011;9132;47.946;10.394;2022-12-05T08:52:46;5.20;;;3.90;;
18013;SDS011;9132;47.946;10.394;2022-12-05T08:55:12;3.70;;;3.13;;
18013;SDS011;9132;47.946;10.394;2022-12-05T08:57:40;3.97;;;3.10;;
18013;SDS011;9132;47.946;10.394;2022-12-05T09:00:07;6.27;;;4.87;;
18013;SDS011;9132;47.946;10.394;2022-12-05T09:02:33;4.40;;;3.97;;
18013;SDS011;9132;47.946;10.394;2022-12-05T09:05:00;4.43;;;3.90;;
18013;SDS011;9132;47.946;10.394;2022-12-05T09:07:26;4.10;;;3.70;;
18013;SDS011;9132;47.946;10.394;2022-12-05T09:09:52;4.60;;;3.80;;
18013;SDS011;9132;47.946;10.394;2022-12-05T09:12:19;5.07;;;4.17;;
18013;SDS011;9132;47.946;10.394;2022-12-05T09:14:47;3.97;;;3.43;;
18013;SDS011;9132;47.946;10.394;2022-12-05T09:17:13;3.70;;;3.00;;
18013;SDS011;9132;47.946;10.394;2022-12-05T09:19:39;4.23;;;3.53;;
18013;SDS011;9132;47.946;10.394;2022-12-05T09:22:06;5.37;;;3.97;;
18013;SDS011;9132;47.946;10.394;2022-12-05T09:24:32;5.20;;;4.17;;
18013;SDS011;9132;47.946;10.394;2022-12-05T09:26:58;4.70;;;3.97;;
18013;SDS011;9132;47.946;10.394;2022-12-05T09:29:25;5.97;;;4.47;;
18013;SDS011;9132;47.946;10.394;2022-12-05T09:31:54;4.67;;;3.40;;
18013;SDS011;9132;47.946;10.394;2022-12-05T09:34:21;3.87;;;3.37;;
18013;SDS011;9132;47.946;10.394;2022-12-05T09:36:50;4.70;;;3.70;;
18013;SDS011;9132;47.946;10.394;2022-12-05T09:39:16;4.23;;;3.70;;
18013;SDS011;9132;47.946;10.394;2022-12-05T09:41:48;4.63;;;3.70;;
18013;SDS011;9132;47.946;10.394;2022-12-05T09:44:42;4.53;;;3.27;;
18013;SDS011;9132;47.946;10.394;2022-12-05T09:47:12;5.87;;;4.03;;
18013;SDS011;9132;47.946;10.394;2022-12-05T09:49:43;4.30;;;3.90;;
18013;SDS011;9132;47.946;10.394;2022-12-05T09:52:12;5.77;;;4.17;;
18013;SDS011;9132;47.946;10.394;2022-12-05T09:54:43;4.37;;;3.40;;
18013;SDS011;9132;47.946;10.394;2022-12-05T09:57:09;5.07;;;3.70;;
18013;SDS011;9132;47.946;10.394;2022-12-05T09:59:36;4.57;;;3.57;;
18013;SDS011;9132;47.946;10.394;2022-12-05T10:02:05;4.83;;;3.60;;
18013;SDS011;9132;47.946;10.394;2022-12-05T10:04:45;3.97;;;3.47;;
18013;SDS011;9132;47.946;10.394;2022-12-05T10:07:16;4.40;;;3.63;;
18013;SDS011;9132;47.946;10.394;2022-12-05T10:09:49;4.63;;;3.77;;
18013;SDS011;9132;47.946;10.394;2022-12-05T10:12:33;4.33;;;3.27;;
18013;SDS011;9132;47.946;10.394;2022-12-05T10:15:03;3.70;;;2.90;;
18013;SDS011;9132;47.946;10.394;2022-12-05T10:17:36;4.70;;;3.60;;
18013;SDS011;9132;47.946;10.394;2022-12-05T10:20:08;3.93;;;2.90;;
18013;SDS011;9132;47.946;10.394;2022-12-05T10:22:37;3.80;;;3.10;;
18013;SDS011;9132;47.946;10.394;2022-12-05T10:25:05;3.67;;;2.83;;
18013;SDS011;9132;47.946;10.394;2022-12-05T10:27:34;3.97;;;3.20;;
18013;SDS011;9132;47.946;10.394;2022-12-05T10:30:02;3.63;;;2.70;;
18013;SDS011;9132;47.946;10.394;2022-12-05T10:32:29;3.23;;;2.40;;
18013;SDS011;9132;47.946;10.394;2022-12-05T10:34:58;3.70;;;2.73;;
18013;SDS011;9132;47.946;10.394;2022-12-05T10:37:28;3.70;;;2.60;;
18013;SDS011;9132;47.946;10.394;2022-12-05T10:39:55;3.10;;;2.13;;
18013;SDS011;9132;47.946;10.394;2022-12-05T10:42:24;2.63;;;2.30;;
18013;SDS011;9132;47.946;10.394;2022-12-05T10:44:53;2.67;;;2.10;;
18013;SDS011;9132;47.946;10.394;2022-12-05T10:47:20;2.53;;;1.90;;
18013;SDS011;9132;47.946;10.394;2022-12-05T10:49:46;1.67;;;1.53;;
18013;SDS011;9132;47.946;10.394;2022-12-05T10:52:13;2.10;;;1.70;;
18013;SDS011;9132;47.946;10.394;2022-12-05T10:54:43;1.90;;;1.47;;
18013;SDS011;9132;47.946;10.394;2022-12-05T10:57:19;1.53;;;1.33;;
18013;SDS011;9132;47.946;10.394;2022-12-05T10:59:45;1.40;;;1.20;;
18013;SDS011;9132;47.946;10.394;2022-12-05T11:02:17;1.87;;;1.50;;
18013;SDS011;9132;47.946;10.394;2022-12-05T11:04:44;1.33;;;1.10;;
18013;SDS011;9132;47.946;10.394;2022-12-05T11:07:20;1.30;;;1.20;;
18013;SDS011;9132;47.946;10.394;2022-12-05T11:09:50;1.90;;;1.43;;
18013;SDS011;9132;47.946;10.394;2022-12-05T11:12:17;1.20;;;1.10;;
18013;SDS011;9132;47.946;10.394;2022-12-05T11:14:55;1.70;;;1.40;;
18013;SDS011;9132;47.946;10.394;2022-12-05T11:17:22;1.97;;;1.13;;
18013;SDS011;9132;47.946;10.394;2022-12-05T11:19:49;1.57;;;1.10;;
18013;SDS011;9132;47.946;10.394;2022-12-05T11:22:15;1.13;;;0.93;;
18013;SDS011;9132;47.946;10.394;2022-12-05T11:24:42;1.30;;;1.20;;
18013;SDS011;9132;47.946;10.394;2022-12-05T11:27:20;1.40;;;1.03;;
18013;SDS011;9132;47.946;10.394;2022-12-05T11:29:52;3.67;;;2.67;;
18013;SDS011;9132;47.946;10.394;2022-12-05T11:32:20;1.40;;;1.30;;
18013;SDS011;9132;47.946;10.394;2022-12-05T11:34:48;2.87;;;2.67;;
18013;SDS011;9132;47.946;10.394;2022-12-05T11:37:17;1.60;;;1.50;;
18013;SDS011;9132;47.946;10.394;2022-12-05T11:39:45;1.27;;;1.17;;
18013;SDS011;9132;47.946;10.394;2022-12-05T11:42:15;1.10;;;1.00;;
18013;SDS011;9132;47.946;10.394;2022-12-05T11:44:52;1.37;;;1.17;;
18013;SDS011;9132;47.946;10.394;2022-12-05T11:47:22;1.07;;;0.97;;
18013;SDS011;9132;47.946;10.394;2022-12-05T11:49:57;0.97;;;0.87;;
18013;SDS011;9132;47.946;10.394;2022-12-05T11:52:28;1.20;;;1.10;;
18013;SDS011;9132;47.946;10.394;2022-12-05T11:54:59;0.70;;;0.70;;
18013;SDS011;9132;47.946;10.394;2022-12-05T11:57:45;0.90;;;0.77;;
18013;SDS011;9132;47.946;10.394;2022-12-05T12:00:21;0.70;;;0.70;;
18013;SDS011;9132;47.946;10.394;2022-12-05T12:02:57;0.70;;;0.70;;
18013;SDS011;9132;47.946;10.394;2022-12-05T12:05:29;1.47;;;0.90;;
18013;SDS011;9132;47.946;10.394;2022-12-05T12:08:02;0.70;;;0.70;;
18013;SDS011;9132;47.946;10.394;2022-12-05T12:10:32;1.83;;;1.53;;
18013;SDS011;9132;47.946;10.394;2022-12-05T12:13:04;1.20;;;1.00;;
18013;SDS011;9132;47.946;10.394;2022-12-05T12:15:36;1.10;;;1.00;;
18013;SDS011;9132;47.946;10.394;2022-12-05T12:18:07;1.20;;;1.00;;
18013;SDS011;9132;47.946;10.394;2022-12-05T12:20:40;1.00;;;0.90;;
18013;SDS011;9132;47.946;10.394;2022-12-05T12:23:20;1.10;;;1.00;;
18013;SDS011;9132;47.946;10.394;2022-12-05T12:25:52;0.85;;;0.85;;
18013;SDS011;9132;47.946;10.394;2022-12-05T12:28:27;0.87;;;0.80;;
18013;SDS011;9132;47.946;10.394;2022-12-05T12:31:01;0.80;;;0.80;;
18013;SDS011;9132;47.946;10.394;2022-12-05T12:33:29;0.80;;;0.73;;
18013;SDS011;9132;47.946;10.394;2022-12-05T12:35:59;1.10;;;0.83;;
18013;SDS011;9132;47.946;10.394;2022-12-05T12:38:31;0.80;;;0.80;;
18013;SDS011;9132;47.946;10.394;2022-12-05T12:41:04;0.70;;;0.70;;
18013;SDS011;9132;47.946;10.394;2022-12-05T12:43:37;2.57;;;2.37;;
18013;SDS011;9132;47.946;10.394;2022-12-05T12:46:21;1.50;;;1.40;;
18013;SDS011;9132;47.946;10.394;2022-12-05T12:48:57;0.70;;;0.70;;
18013;SDS011;9132;47.946;10.394;2022-12-05T12:51:27;0.70;;;0.70;;
18013;SDS011;9132;47.946;10.394;2022-12-05T12:54:03;0.80;;;0.80;;
18013;SDS011;9132;47.946;10.394;2022-12-05T12:56:34;1.63;;;1.00;;
18013;SDS011;9132;47.946;10.394;2022-12-05T12:59:06;0.90;;;0.90;;
18013;SDS011;9132;47.946;10.394;2022-12-05T13:01:36;1.20;;;1.10;;
18013;SDS011;9132;47.946;10.394;2022-12-05T13:04:06;0.80;;;0.73;;
18013;SDS011;9132;47.946;10.394;2022-12-05T13:06:37;2.13;;;0.63;;
18013;SDS011;9132;47.946;10.394;2022-12-05T13:09:08;0.80;;;0.80;;
18013;SDS011;9132;47.946;10.394;2022-12-05T13:11:37;0.87;;;0.87;;
18013;SDS011;9132;47.946;10.394;2022-12-05T13:14:06;1.50;;;1.30;;
18013;SDS011;9132;47.946;10.394;2022-12-05T13:16:38;2.37;;;2.17;;
18013;SDS011;9132;47.946;10.394;2022-12-05T13:19:05;2.40;;;1.90;;
18013;SDS011;9132;47.946;10.394;2022-12-05T13:21:34;1.00;;;0.90;;
18013;SDS011;9132;47.946;10.394;2022-12-05T13:24:01;1.60;;;1.40;;
18013;SDS011;9132;47.946;10.394;2022-12-05T13:26:27;3.00;;;2.10;;
18013;SDS011;9132;47.946;10.394;2022-12-05T13:28:54;1.20;;;1.00;;
18013;SDS011;9132;47.946;10.394;2022-12-05T13:31:33;4.67;;;3.30;;
18013;SDS011;9132;47.946;10.394;2022-12-05T13:34:01;5.30;;;3.17;;
18013;SDS011;9132;47.946;10.394;2022-12-05T13:36:29;2.23;;;1.70;;
18013;SDS011;9132;47.946;10.394;2022-12-05T13:39:21;5.83;;;3.60;;
18013;SDS011;9132;47.946;10.394;2022-12-05T13:42:04;5.60;;;3.93;;
18013;SDS011;9132;47.946;10.394;2022-12-05T13:44:41;6.32;;;5.05;;
18013;SDS011;9132;47.946;10.394;2022-12-05T13:47:18;2.03;;;1.83;;
18013;SDS011;9132;47.946;10.394;2022-12-05T13:49:48;1.90;;;1.70;;
18013;SDS011;9132;47.946;10.394;2022-12-05T13:52:18;2.10;;;1.40;;
18013;SDS011;9132;47.946;10.394;2022-12-05T13:54:52;1.20;;;1.03;;
18013;SDS011;9132;47.946;10.394;2022-12-05T14:00:18;1.87;;;1.20;;
18013;SDS011;9132;47.946;10.394;2022-12-05T14:02:47;1.30;;;1.20;;
18013;SDS011;9132;47.946;10.394;2022-12-05T14:08:02;4.00;;;3.50;;
18013;SDS011;9132;47.946;10.394;2022-12-05T14:11:07;3.00;;;2.33;;
18013;SDS011;9132;47.946;10.394;2022-12-05T14:13:38;1.30;;;1.20;;
18013;SDS011;9132;47.946;10.394;2022-12-05T14:18:51;3.23;;;2.93;;
18013;SDS011;9132;47.946;10.394;2022-12-05T14:21:20;16.13;;;10.07;;
18013;SDS011;9132;47.946;10.394;2022-12-05T14:23:54;2.87;;;2.60;;
18013;SDS011;9132;47.946;10.394;2022-12-05T14:29:16;2.33;;;1.20;;
18013;SDS011;9132;47.946;10.394;2022-12-05T14:31:51;2.10;;;1.90;;
18013;SDS011;9132;47.946;10.394;2022-12-05T14:34:24;1.33;;;1.10;;
18013;SDS011;9132;47.946;10.394;2022-12-05T14:36:55;1.20;;;1.10;;
18013;SDS011;9132;47.946;10.394;2022-12-05T14:39:29;1.00;;;1.00;;
18013;SDS011;9132;47.946;10.394;2022-12-05T14:41:56;1.53;;;1.10;;
18013;SDS011;9132;47.946;10.394;2022-12-05T14:44:23;1.30;;;1.13;;
18013;SDS011;9132;47.946;10.394;2022-12-05T14:46:56;1.00;;;1.00;;
18013;SDS011;9132;47.946;10.394;2022-12-05T14:49:33;1.10;;;1.00;;
18013;SDS011;9132;47.946;10.394;2022-12-05T14:52:00;2.63;;;1.37;;
18013;SDS011;9132;47.946;10.394;2022-12-05T14:54:35;1.43;;;1.33;;
18013;SDS011;9132;47.946;10.394;2022-12-05T14:57:02;1.40;;;1.30;;
18013;SDS011;9132;47.946;10.394;2022-12-05T14:59:32;1.40;;;1.30;;
18013;SDS011;9132;47.946;10.394;2022-12-05T15:01:59;2.17;;;1.60;;
18013;SDS011;9132;47.946;10.394;2022-12-05T15:04:29;3.90;;;2.20;;
18013;SDS011;9132;47.946;10.394;2022-12-05T15:06:58;3.30;;;2.43;;
18013;SDS011;9132;47.946;10.394;2022-12-05T15:09:28;17.50;;;11.73;;
18013;SDS011;9132;47.946;10.394;2022-12-05T15:11:56;6.60;;;5.07;;